sensor_id;sensor_type;location;lat;lon;timestamp;P1;durP1;ratioP1;P2;durP2;ratioP2
26157;SDS011;67284;44.782;10.282;2024-02-14T00:00:44;46.30;;;21.65;;
26157;SDS011;67284;44.782;10.282;2024-02-14T00:05:36;42.85;;;20.60;;
26157;SDS011;67284;44.782;10.282;2024-02-14T00:10:28;33.67;;;17.77;;
26157;SDS011;67284;44.782;10.282;2024-02-14T00:15:20;32.13;;;17.33;;
26157;SDS011;67284;44.782;10.282;2024-02-14T00:20:12;33.38;;;18.83;;
26157;SDS011;67284;44.782;10.282;2024-02-14T00:25:04;30.95;;;16.30;;
26157;SDS011;67284;44.782;10.282;2024-02-14T00:29:56;29.52;;;16.48;;
26157;SDS011;67284;44.782;10.282;2024-02-14T00:34:48;30.33;;;15.82;;
26157;SDS011;67284;44.782;10.282;2024-02-14T00:39:42;26.48;;;14.50;;
26157;SDS011;67284;44.782;10.282;2024-02-14T00:44:33;27.65;;;14.35;;
26157;SDS011;67284;44.782;10.282;2024-02-14T00:49:25;28.58;;;15.05;;
26157;SDS011;67284;44.782;10.282;2024-02-14T00:54:18;28.52;;;15.13;;
26157;SDS011;67284;44.782;10.282;2024-02-14T00:59:10;26.08;;;15.13;;
26157;SDS011;67284;44.782;10.282;2024-02-14T01:04:02;31.13;;;17.00;;
26157;SDS011;67284;44.782;10.282;2024-02-14T01:08:54;30.27;;;16.48;;
26157;SDS011;67284;44.782;10.282;2024-02-14T01:13:46;28.90;;;16.50;;
26157;SDS011;67284;44.782;10.282;2024-02-14T01:18:38;29.23;;;14.27;;
26157;SDS011;67284;44.782;10.282;2024-02-14T01:23:30;35.13;;;16.48;;
26157;SDS011;67284;44.782;10.282;2024-02-14T01:28:22;28.73;;;14.45;;
26157;SDS011;67284;44.782;10.282;2024-02-14T01:33:13;33.10;;;16.30;;
26157;SDS011;67284;44.782;10.282;2024-02-14T01:38:07;24.80;;;15.38;;
26157;SDS011;67284;44.782;10.282;2024-02-14T01:42:58;25.70;;;14.68;;
26157;SDS011;67284;44.782;10.282;2024-02-14T01:47:50;30.45;;;15.10;;
26157;SDS011;67284;44.782;10.282;2024-02-14T01:52:42;29.92;;;15.38;;
26157;SDS011;67284;44.782;10.282;2024-02-14T01:57:35;29.90;;;15.15;;
26157;SDS011;67284;44.782;10.282;2024-02-14T02:02:29;33.80;;;17.17;;
26157;SDS011;67284;44.782;10.282;2024-02-14T02:07:20;38.78;;;16.75;;
26157;SDS011;67284;44.782;10.282;2024-02-14T02:12:12;31.65;;;15.95;;
26157;SDS011;67284;44.782;10.282;2024-02-14T02:17:05;36.42;;;16.25;;
26157;SDS011;67284;44.782;10.282;2024-02-14T02:22:00;36.83;;;17.90;;
26157;SDS011;67284;44.782;10.282;2024-02-14T02:26:52;31.48;;;16.55;;
26157;SDS011;67284;44.782;10.282;2024-02-14T02:31:44;37.15;;;17.00;;
26157;SDS011;67284;44.782;10.282;2024-02-14T02:36:36;40.80;;;19.05;;
26157;SDS011;67284;44.782;10.282;2024-02-14T02:41:29;35.25;;;16.65;;
26157;SDS011;67284;44.782;10.282;2024-02-14T02:46:21;27.08;;;15.55;;
26157;SDS011;67284;44.782;10.282;2024-02-14T02:51:16;33.22;;;17.95;;
26157;SDS011;67284;44.782;10.282;2024-02-14T02:56:09;35.85;;;17.10;;
26157;SDS011;67284;44.782;10.282;2024-02-14T03:01:00;32.58;;;17.30;;
26157;SDS011;67284;44.782;10.282;2024-02-14T03:05:52;36.70;;;17.98;;
26157;SDS011;67284;44.782;10.282;2024-02-14T03:10:46;37.60;;;17.92;;
26157;SDS011;67284;44.782;10.282;2024-02-14T03:15:38;34.33;;;18.38;;
26157;SDS011;67284;44.782;10.282;2024-02-14T03:20:30;35.90;;;16.67;;
26157;SDS011;67284;44.782;10.282;2024-02-14T03:25:22;36.22;;;18.67;;
26157;SDS011;67284;44.782;10.282;2024-02-14T03:30:15;34.60;;;18.38;;
26157;SDS011;67284;44.782;10.282;2024-02-14T03:35:09;34.38;;;17.58;;
26157;SDS011;67284;44.782;10.282;2024-02-14T03:40:07;32.03;;;15.63;;
26157;SDS011;67284;44.782;10.282;2024-02-14T03:45:00;29.65;;;15.70;;
26157;SDS011;67284;44.782;10.282;2024-02-14T03:49:57;27.60;;;16.02;;
26157;SDS011;67284;44.782;10.282;2024-02-14T03:54:49;30.45;;;15.13;;
26157;SDS011;67284;44.782;10.282;2024-02-14T03:59:42;31.25;;;13.25;;
26157;SDS011;67284;44.782;10.282;2024-02-14T04:04:34;20.30;;;11.88;;
26157;SDS011;67284;44.782;10.282;2024-02-14T04:09:26;21.77;;;12.05;;
26157;SDS011;67284;44.782;10.282;2024-02-14T04:14:18;13.20;;;8.50;;
26157;SDS011;67284;44.782;10.282;2024-02-14T04:19:10;14.45;;;8.02;;
26157;SDS011;67284;44.782;10.282;2024-02-14T04:24:04;12.60;;;6.97;;
26157;SDS011;67284;44.782;10.282;2024-02-14T04:28:56;11.60;;;6.70;;
26157;SDS011;67284;44.782;10.282;2024-02-14T04:33:48;8.77;;;5.20;;
26157;SDS011;67284;44.782;10.282;2024-02-14T04:38:44;9.43;;;5.00;;
26157;SDS011;67284;44.782;10.282;2024-02-14T04:43:36;12.02;;;5.05;;
26157;SDS011;67284;44.782;10.282;2024-02-14T04:48:27;8.95;;;4.95;;
26157;SDS011;67284;44.782;10.282;2024-02-14T04:53:19;7.22;;;3.97;;
26157;SDS011;67284;44.782;10.282;2024-02-14T04:58:11;6.15;;;3.65;;
26157;SDS011;67284;44.782;10.282;2024-02-14T05:03:03;7.80;;;4.68;;
26157;SDS011;67284;44.782;10.282;2024-02-14T05:07:55;7.13;;;5.13;;
26157;SDS011;67284;44.782;10.282;2024-02-14T05:12:47;8.10;;;4.28;;
26157;SDS011;67284;44.782;10.282;2024-02-14T05:17:41;8.15;;;4.28;;
26157;SDS011;67284;44.782;10.282;2024-02-14T05:22:37;8.85;;;5.38;;
26157;SDS011;67284;44.782;10.282;2024-02-14T05:27:30;8.15;;;4.38;;
26157;SDS011;67284;44.782;10.282;2024-02-14T05:32:22;7.43;;;4.70;;
26157;SDS011;67284;44.782;10.282;2024-02-14T05:37:15;5.85;;;4.07;;
26157;SDS011;67284;44.782;10.282;2024-02-14T05:42:07;8.10;;;4.80;;
26157;SDS011;67284;44.782;10.282;2024-02-14T05:46:59;7.35;;;4.63;;
26157;SDS011;67284;44.782;10.282;2024-02-14T05:51:51;6.38;;;4.30;;
26157;SDS011;67284;44.782;10.282;2024-02-14T05:56:45;6.65;;;4.28;;
26157;SDS011;67284;44.782;10.282;2024-02-14T06:01:37;9.32;;;4.32;;
26157;SDS011;67284;44.782;10.282;2024-02-14T06:06:29;9.23;;;5.03;;
26157;SDS011;67284;44.782;10.282;2024-02-14T06:11:21;7.63;;;4.82;;
26157;SDS011;67284;44.782;10.282;2024-02-14T06:16:13;8.00;;;4.85;;
26157;SDS011;67284;44.782;10.282;2024-02-14T06:21:05;7.75;;;5.32;;
26157;SDS011;67284;44.782;10.282;2024-02-14T06:25:57;11.52;;;4.60;;
26157;SDS011;67284;44.782;10.282;2024-02-14T06:30:50;8.50;;;5.55;;
26157;SDS011;67284;44.782;10.282;2024-02-14T06:35:42;12.82;;;5.18;;
26157;SDS011;67284;44.782;10.282;2024-02-14T06:40:34;14.02;;;5.38;;
26157;SDS011;67284;44.782;10.282;2024-02-14T06:45:26;7.40;;;4.45;;
26157;SDS011;67284;44.782;10.282;2024-02-14T06:50:19;15.05;;;6.03;;
26157;SDS011;67284;44.782;10.282;2024-02-14T06:55:11;11.88;;;5.63;;
26157;SDS011;67284;44.782;10.282;2024-02-14T07:00:03;8.65;;;5.07;;
26157;SDS011;67284;44.782;10.282;2024-02-14T07:04:58;14.35;;;5.57;;
26157;SDS011;67284;44.782;10.282;2024-02-14T07:09:50;11.10;;;5.68;;
26157;SDS011;67284;44.782;10.282;2024-02-14T07:14:42;14.00;;;5.65;;
26157;SDS011;67284;44.782;10.282;2024-02-14T07:19:34;16.08;;;5.97;;
26157;SDS011;67284;44.782;10.282;2024-02-14T07:24:26;10.48;;;6.05;;
26157;SDS011;67284;44.782;10.282;2024-02-14T07:29:17;10.68;;;5.47;;
26157;SDS011;67284;44.782;10.282;2024-02-14T07:34:10;11.65;;;5.65;;
26157;SDS011;67284;44.782;10.282;2024-02-14T07:39:03;11.75;;;6.00;;
26157;SDS011;67284;44.782;10.282;2024-02-14T07:43:55;11.35;;;6.10;;
26157;SDS011;67284;44.782;10.282;2024-02-14T07:48:48;9.55;;;5.68;;
26157;SDS011;67284;44.782;10.282;2024-02-14T07:53:41;11.55;;;6.78;;
26157;SDS011;67284;44.782;10.282;2024-02-14T07:58:33;10.73;;;6.70;;
26157;SDS011;67284;44.782;10.282;2024-02-14T08:03:24;11.15;;;6.07;;
26157;SDS011;67284;44.782;10.282;2024-02-14T08:08:17;11.98;;;6.60;;
26157;SDS011;67284;44.782;10.282;2024-02-14T08:13:09;8.98;;;5.88;;
26157;SDS011;67284;44.782;10.282;2024-02-14T08:18:03;10.25;;;6.05;;
26157;SDS011;67284;44.782;10.282;2024-02-14T08:23:00;12.32;;;6.18;;
26157;SDS011;67284;44.782;10.282;2024-02-14T08:27:53;11.90;;;5.65;;
26157;SDS011;67284;44.782;10.282;2024-02-14T08:32:45;17.40;;;6.22;;
26157;SDS011;67284;44.782;10.282;2024-02-14T08:37:37;10.57;;;6.32;;
26157;SDS011;67284;44.782;10.282;2024-02-14T08:42:29;13.50;;;7.22;;
26157;SDS011;67284;44.782;10.282;2024-02-14T08:47:21;13.93;;;7.22;;
26157;SDS011;67284;44.782;10.282;2024-02-14T08:52:13;12.23;;;6.57;;
26157;SDS011;67284;44.782;10.282;2024-02-14T08:57:05;12.82;;;7.43;;
26157;SDS011;67284;44.782;10.282;2024-02-14T09:01:57;16.38;;;8.73;;
26157;SDS011;67284;44.782;10.282;2024-02-14T09:06:49;16.13;;;7.85;;
26157;SDS011;67284;44.782;10.282;2024-02-14T09:11:41;12.93;;;7.20;;
26157;SDS011;67284;44.782;10.282;2024-02-14T09:16:33;15.15;;;7.63;;
26157;SDS011;67284;44.782;10.282;2024-02-14T09:21:25;18.17;;;9.40;;
26157;SDS011;67284;44.782;10.282;2024-02-14T09:26:19;16.90;;;9.77;;
26157;SDS011;67284;44.782;10.282;2024-02-14T09:31:11;15.63;;;9.52;;
26157;SDS011;67284;44.782;10.282;2024-02-14T09:36:04;20.52;;;12.27;;
26157;SDS011;67284;44.782;10.282;2024-02-14T09:40:58;20.83;;;11.68;;
26157;SDS011;67284;44.782;10.282;2024-02-14T09:45:58;20.42;;;12.15;;
26157;SDS011;67284;44.782;10.282;2024-02-14T09:50:49;24.85;;;14.30;;
26157;SDS011;67284;44.782;10.282;2024-02-14T09:55:45;24.08;;;15.15;;
26157;SDS011;67284;44.782;10.282;2024-02-14T10:00:37;24.45;;;14.85;;
26157;SDS011;67284;44.782;10.282;2024-02-14T10:05:29;25.90;;;15.45;;
26157;SDS011;67284;44.782;10.282;2024-02-14T10:10:21;23.77;;;14.10;;
26157;SDS011;67284;44.782;10.282;2024-02-14T10:15:13;21.88;;;13.63;;
26157;SDS011;67284;44.782;10.282;2024-02-14T10:20:05;22.35;;;12.90;;
26157;SDS011;67284;44.782;10.282;2024-02-14T10:24:59;19.55;;;12.68;;
26157;SDS011;67284;44.782;10.282;2024-02-14T10:29:51;19.40;;;11.93;;
26157;SDS011;67284;44.782;10.282;2024-02-14T10:34:43;24.92;;;13.30;;
26157;SDS011;67284;44.782;10.282;2024-02-14T10:39:38;19.98;;;12.25;;
26157;SDS011;67284;44.782;10.282;2024-02-14T10:44:34;24.35;;;12.50;;
26157;SDS011;67284;44.782;10.282;2024-02-14T10:49:26;21.02;;;12.00;;
26157;SDS011;67284;44.782;10.282;2024-02-14T10:54:20;20.63;;;12.23;;
26157;SDS011;67284;44.782;10.282;2024-02-14T10:59:16;20.30;;;10.63;;
26157;SDS011;67284;44.782;10.282;2024-02-14T11:04:11;21.40;;;11.80;;
26157;SDS011;67284;44.782;10.282;2024-02-14T11:09:03;20.08;;;11.85;;
26157;SDS011;67284;44.782;10.282;2024-02-14T11:14:02;20.98;;;11.60;;
26157;SDS011;67284;44.782;10.282;2024-02-14T11:19:08;25.10;;;14.88;;
26157;SDS011;67284;44.782;10.282;2024-02-14T11:24:05;23.10;;;12.30;;
26157;SDS011;67284;44.782;10.282;2024-02-14T11:29:01;25.88;;;13.40;;
26157;SDS011;67284;44.782;10.282;2024-02-14T11:33:55;26.73;;;14.02;;
26157;SDS011;67284;44.782;10.282;2024-02-14T11:38:48;23.02;;;13.20;;
26157;SDS011;67284;44.782;10.282;2024-02-14T11:43:50;26.10;;;14.05;;
26157;SDS011;67284;44.782;10.282;2024-02-14T11:48:42;27.00;;;14.23;;
26157;SDS011;67284;44.782;10.282;2024-02-14T11:53:39;26.92;;;15.18;;
26157;SDS011;67284;44.782;10.282;2024-02-14T11:58:32;32.30;;;16.75;;
26157;SDS011;67284;44.782;10.282;2024-02-14T12:03:25;36.38;;;17.48;;
26157;SDS011;67284;44.782;10.282;2024-02-14T12:08:18;32.65;;;17.98;;
26157;SDS011;67284;44.782;10.282;2024-02-14T12:13:11;33.78;;;16.02;;
26157;SDS011;67284;44.782;10.282;2024-02-14T12:18:05;39.85;;;18.50;;
26157;SDS011;67284;44.782;10.282;2024-02-14T12:22:57;34.28;;;16.73;;
26157;SDS011;67284;44.782;10.282;2024-02-14T12:27:50;34.15;;;16.35;;
26157;SDS011;67284;44.782;10.282;2024-02-14T12:32:43;27.73;;;15.40;;
26157;SDS011;67284;44.782;10.282;2024-02-14T12:37:35;26.27;;;15.57;;
26157;SDS011;67284;44.782;10.282;2024-02-14T12:42:27;27.40;;;15.18;;
26157;SDS011;67284;44.782;10.282;2024-02-14T12:47:19;29.25;;;15.43;;
26157;SDS011;67284;44.782;10.282;2024-02-14T12:52:13;31.40;;;15.80;;
26157;SDS011;67284;44.782;10.282;2024-02-14T12:57:05;26.02;;;15.15;;
26157;SDS011;67284;44.782;10.282;2024-02-14T13:01:58;29.90;;;13.98;;
26157;SDS011;67284;44.782;10.282;2024-02-14T13:06:50;30.30;;;14.75;;
26157;SDS011;67284;44.782;10.282;2024-02-14T13:11:42;29.58;;;16.02;;
26157;SDS011;67284;44.782;10.282;2024-02-14T13:16:34;28.90;;;15.38;;
26157;SDS011;67284;44.782;10.282;2024-02-14T13:21:26;29.15;;;14.93;;
26157;SDS011;67284;44.782;10.282;2024-02-14T13:26:18;33.97;;;16.17;;
26157;SDS011;67284;44.782;10.282;2024-02-14T13:31:10;33.67;;;16.05;;
26157;SDS011;67284;44.782;10.282;2024-02-14T13:36:02;28.30;;;14.43;;
26157;SDS011;67284;44.782;10.282;2024-02-14T13:40:55;31.05;;;16.40;;
26157;SDS011;67284;44.782;10.282;2024-02-14T13:45:47;32.10;;;15.25;;
26157;SDS011;67284;44.782;10.282;2024-02-14T13:50:40;33.42;;;16.25;;
26157;SDS011;67284;44.782;10.282;2024-02-14T13:55:33;27.58;;;12.98;;
26157;SDS011;67284;44.782;10.282;2024-02-14T14:00:25;29.90;;;14.27;;
26157;SDS011;67284;44.782;10.282;2024-02-14T14:05:17;28.40;;;13.38;;
26157;SDS011;67284;44.782;10.282;2024-02-14T14:10:12;30.73;;;15.93;;
26157;SDS011;67284;44.782;10.282;2024-02-14T14:15:04;29.02;;;15.88;;
26157;SDS011;67284;44.782;10.282;2024-02-14T14:19:56;34.55;;;15.35;;
26157;SDS011;67284;44.782;10.282;2024-02-14T14:24:48;27.92;;;15.90;;
26157;SDS011;67284;44.782;10.282;2024-02-14T14:29:40;26.98;;;13.75;;
26157;SDS011;67284;44.782;10.282;2024-02-14T14:34:36;28.25;;;14.15;;
26157;SDS011;67284;44.782;10.282;2024-02-14T14:39:28;27.52;;;15.07;;
26157;SDS011;67284;44.782;10.282;2024-02-14T14:44:21;27.25;;;14.05;;
26157;SDS011;67284;44.782;10.282;2024-02-14T14:49:13;25.55;;;14.23;;
26157;SDS011;67284;44.782;10.282;2024-02-14T14:54:05;26.25;;;13.50;;
26157;SDS011;67284;44.782;10.282;2024-02-14T14:58:57;20.30;;;12.20;;
26157;SDS011;67284;44.782;10.282;2024-02-14T15:03:50;26.48;;;13.05;;
26157;SDS011;67284;44.782;10.282;2024-02-14T15:08:44;25.70;;;13.23;;
26157;SDS011;67284;44.782;10.282;2024-02-14T15:13:37;24.90;;;13.38;;
26157;SDS011;67284;44.782;10.282;2024-02-14T15:18:28;26.60;;;13.02;;
26157;SDS011;67284;44.782;10.282;2024-02-14T15:23:21;32.17;;;15.00;;
26157;SDS011;67284;44.782;10.282;2024-02-14T15:28:12;26.35;;;14.13;;
26157;SDS011;67284;44.782;10.282;2024-02-14T15:33:09;27.60;;;14.32;;
26157;SDS011;67284;44.782;10.282;2024-02-14T15:38:20;27.92;;;15.13;;
26157;SDS011;67284;44.782;10.282;2024-02-14T15:43:12;27.92;;;15.18;;
26157;SDS011;67284;44.782;10.282;2024-02-14T15:48:05;29.88;;;15.52;;
26157;SDS011;67284;44.782;10.282;2024-02-14T15:52:58;27.83;;;13.85;;
26157;SDS011;67284;44.782;10.282;2024-02-14T15:57:49;26.05;;;12.93;;
26157;SDS011;67284;44.782;10.282;2024-02-14T16:02:41;25.83;;;12.77;;
26157;SDS011;67284;44.782;10.282;2024-02-14T16:07:33;23.80;;;13.60;;
26157;SDS011;67284;44.782;10.282;2024-02-14T16:12:25;23.25;;;13.20;;
26157;SDS011;67284;44.782;10.282;2024-02-14T16:17:18;23.58;;;11.80;;
26157;SDS011;67284;44.782;10.282;2024-02-14T16:22:10;21.48;;;11.43;;
26157;SDS011;67284;44.782;10.282;2024-02-14T16:27:07;19.90;;;10.30;;
26157;SDS011;67284;44.782;10.282;2024-02-14T16:31:59;22.98;;;11.10;;
26157;SDS011;67284;44.782;10.282;2024-02-14T16:36:51;18.83;;;10.73;;
26157;SDS011;67284;44.782;10.282;2024-02-14T16:41:43;20.80;;;11.13;;
26157;SDS011;67284;44.782;10.282;2024-02-14T16:46:35;22.80;;;11.27;;
26157;SDS011;67284;44.782;10.282;2024-02-14T16:51:27;23.23;;;12.20;;
26157;SDS011;67284;44.782;10.282;2024-02-14T16:56:19;22.83;;;11.27;;
26157;SDS011;67284;44.782;10.282;2024-02-14T17:01:11;18.35;;;10.55;;
26157;SDS011;67284;44.782;10.282;2024-02-14T17:06:03;21.13;;;10.75;;
26157;SDS011;67284;44.782;10.282;2024-02-14T17:10:55;19.98;;;11.55;;
26157;SDS011;67284;44.782;10.282;2024-02-14T17:15:47;20.95;;;11.43;;
26157;SDS011;67284;44.782;10.282;2024-02-14T17:20:39;25.33;;;11.82;;
26157;SDS011;67284;44.782;10.282;2024-02-14T17:25:34;25.95;;;13.18;;
26157;SDS011;67284;44.782;10.282;2024-02-14T17:30:28;22.33;;;11.88;;
26157;SDS011;67284;44.782;10.282;2024-02-14T17:35:20;26.40;;;13.98;;
26157;SDS011;67284;44.782;10.282;2024-02-14T17:40:12;21.75;;;13.27;;
26157;SDS011;67284;44.782;10.282;2024-02-14T17:45:04;26.33;;;13.48;;
26157;SDS011;67284;44.782;10.282;2024-02-14T17:49:58;23.13;;;12.13;;
26157;SDS011;67284;44.782;10.282;2024-02-14T17:54:50;23.80;;;13.25;;
26157;SDS011;67284;44.782;10.282;2024-02-14T17:59:42;26.70;;;13.40;;
26157;SDS011;67284;44.782;10.282;2024-02-14T18:04:35;28.95;;;14.00;;
26157;SDS011;67284;44.782;10.282;2024-02-14T18:09:27;27.63;;;15.00;;
26157;SDS011;67284;44.782;10.282;2024-02-14T18:14:19;25.90;;;12.38;;
26157;SDS011;67284;44.782;10.282;2024-02-14T18:19:11;23.42;;;13.23;;
26157;SDS011;67284;44.782;10.282;2024-02-14T18:24:03;24.67;;;11.90;;
26157;SDS011;67284;44.782;10.282;2024-02-14T18:28:57;36.65;;;18.00;;
26157;SDS011;67284;44.782;10.282;2024-02-14T18:33:49;37.20;;;19.60;;
26157;SDS011;67284;44.782;10.282;2024-02-14T18:38:41;40.95;;;18.77;;
26157;SDS011;67284;44.782;10.282;2024-02-14T18:43:33;30.15;;;17.73;;
26157;SDS011;67284;44.782;10.282;2024-02-14T18:48:25;35.83;;;17.48;;
26157;SDS011;67284;44.782;10.282;2024-02-14T18:53:17;29.63;;;15.63;;
26157;SDS011;67284;44.782;10.282;2024-02-14T18:58:09;28.42;;;15.27;;
26157;SDS011;67284;44.782;10.282;2024-02-14T19:03:01;38.20;;;17.90;;
26157;SDS011;67284;44.782;10.282;2024-02-14T19:07:54;35.47;;;16.48;;
26157;SDS011;67284;44.782;10.282;2024-02-14T19:12:46;29.17;;;16.50;;
26157;SDS011;67284;44.782;10.282;2024-02-14T19:17:38;33.50;;;16.55;;
26157;SDS011;67284;44.782;10.282;2024-02-14T19:22:30;28.17;;;16.20;;
26157;SDS011;67284;44.782;10.282;2024-02-14T19:27:23;33.75;;;18.25;;
26157;SDS011;67284;44.782;10.282;2024-02-14T19:32:15;26.52;;;15.85;;
26157;SDS011;67284;44.782;10.282;2024-02-14T19:37:07;27.92;;;15.88;;
26157;SDS011;67284;44.782;10.282;2024-02-14T19:41:59;30.25;;;14.82;;
26157;SDS011;67284;44.782;10.282;2024-02-14T19:46:51;31.48;;;18.08;;
26157;SDS011;67284;44.782;10.282;2024-02-14T19:51:43;32.75;;;17.30;;
26157;SDS011;67284;44.782;10.282;2024-02-14T19:56:35;35.97;;;16.42;;
26157;SDS011;67284;44.782;10.282;2024-02-14T20:01:27;32.35;;;16.52;;
26157;SDS011;67284;44.782;10.282;2024-02-14T20:06:19;36.15;;;17.60;;
26157;SDS011;67284;44.782;10.282;2024-02-14T20:11:11;32.25;;;17.60;;
26157;SDS011;67284;44.782;10.282;2024-02-14T20:16:03;33.47;;;17.55;;
26157;SDS011;67284;44.782;10.282;2024-02-14T20:20:55;36.72;;;16.75;;
26157;SDS011;67284;44.782;10.282;2024-02-14T20:25:47;33.10;;;16.98;;
26157;SDS011;67284;44.782;10.282;2024-02-14T20:30:39;26.90;;;16.35;;
26157;SDS011;67284;44.782;10.282;2024-02-14T20:35:31;33.03;;;15.50;;
26157;SDS011;67284;44.782;10.282;2024-02-14T20:40:23;31.40;;;16.45;;
26157;SDS011;67284;44.782;10.282;2024-02-14T20:45:16;30.98;;;17.02;;
26157;SDS011;67284;44.782;10.282;2024-02-14T20:50:09;37.53;;;17.45;;
26157;SDS011;67284;44.782;10.282;2024-02-14T20:55:01;33.75;;;17.38;;
26157;SDS011;67284;44.782;10.282;2024-02-14T20:59:53;34.60;;;16.55;;
26157;SDS011;67284;44.782;10.282;2024-02-14T21:04:46;28.77;;;15.13;;
26157;SDS011;67284;44.782;10.282;2024-02-14T21:09:38;30.15;;;16.25;;
26157;SDS011;67284;44.782;10.282;2024-02-14T21:14:30;30.10;;;15.75;;
26157;SDS011;67284;44.782;10.282;2024-02-14T21:19:25;31.15;;;15.05;;
26157;SDS011;67284;44.782;10.282;2024-02-14T21:24:17;26.67;;;14.38;;
26157;SDS011;67284;44.782;10.282;2024-02-14T21:29:09;23.85;;;13.00;;
26157;SDS011;67284;44.782;10.282;2024-02-14T21:34:01;25.27;;;13.25;;
26157;SDS011;67284;44.782;10.282;2024-02-14T21:38:54;20.25;;;11.55;;
26157;SDS011;67284;44.782;10.282;2024-02-14T21:43:45;23.73;;;12.40;;
26157;SDS011;67284;44.782;10.282;2024-02-14T21:48:37;19.92;;;11.38;;
26157;SDS011;67284;44.782;10.282;2024-02-14T21:53:29;21.02;;;12.32;;
26157;SDS011;67284;44.782;10.282;2024-02-14T21:58:21;22.42;;;12.13;;
26157;SDS011;67284;44.782;10.282;2024-02-14T22:03:13;20.45;;;11.48;;
26157;SDS011;67284;44.782;10.282;2024-02-14T22:08:05;18.98;;;10.43;;
26157;SDS011;67284;44.782;10.282;2024-02-14T22:12:57;18.17;;;9.48;;
26157;SDS011;67284;44.782;10.282;2024-02-14T22:17:50;17.25;;;8.88;;
26157;SDS011;67284;44.782;10.282;2024-02-14T22:22:42;14.52;;;9.50;;
26157;SDS011;67284;44.782;10.282;2024-02-14T22:27:34;20.65;;;10.52;;
26157;SDS011;67284;44.782;10.282;2024-02-14T22:32:27;16.33;;;9.88;;
26157;SDS011;67284;44.782;10.282;2024-02-14T22:37:19;17.55;;;9.73;;
26157;SDS011;67284;44.782;10.282;2024-02-14T22:42:11;15.68;;;8.65;;
26157;SDS011;67284;44.782;10.282;2024-02-14T22:47:03;12.07;;;8.80;;
26157;SDS011;67284;44.782;10.282;2024-02-14T22:51:59;17.85;;;9.05;;
26157;SDS011;67284;44.782;10.282;2024-02-14T22:56:50;14.50;;;9.10;;
26157;SDS011;67284;44.782;10.282;2024-02-14T23:01:43;17.70;;;9.85;;
26157;SDS011;67284;44.782;10.282;2024-02-14T23:06:35;17.92;;;8.85;;
26157;SDS011;67284;44.782;10.282;2024-02-14T23:11:36;17.80;;;9.05;;
26157;SDS011;67284;44.782;10.282;2024-02-14T23:16:28;21.10;;;10.68;;
26157;SDS011;67284;44.782;10.282;2024-02-14T23:21:20;22.20;;;10.57;;
26157;SDS011;67284;44.782;10.282;2024-02-14T23:26:13;18.20;;;10.10;;
26157;SDS011;67284;44.782;10.282;2024-02-14T23:31:05;18.45;;;9.00;;
26157;SDS011;67284;44.782;10.282;2024-02-14T23:35:58;12.55;;;7.63;;
26157;SDS011;67284;44.782;10.282;2024-02-14T23:40:50;15.52;;;9.68;;
26157;SDS011;67284;44.782;10.282;2024-02-14T23:45:42;14.60;;;7.65;;
26157;SDS011;67284;44.782;10.282;2024-02-14T23:50:34;17.80;;;8.93;;
26157;SDS011;67284;44.782;10.282;2024-02-14T23:55:25;23.08;;;11.00;;
